sensor_id;sensor_type;location;lat;lon;timestamp;P1;durP1;ratioP1;P2;durP2;ratioP2
51272;SDS011;37345;59.828;30.328;2022-10-16T00:01:04;7.38;;;4.95;;
51272;SDS011;37345;59.828;30.328;2022-10-16T00:03:30;7.47;;;5.50;;
51272;SDS011;37345;59.828;30.328;2022-10-16T00:05:58;9.70;;;5.82;;
51272;SDS011;37345;59.828;30.328;2022-10-16T00:08:25;8.10;;;5.38;;
51272;SDS011;37345;59.828;30.328;2022-10-16T00:10:51;9.77;;;5.63;;
51272;SDS011;37345;59.828;30.328;2022-10-16T00:13:17;9.00;;;5.70;;
51272;SDS011;37345;59.828;30.328;2022-10-16T00:15:44;8.38;;;5.00;;
51272;SDS011;37345;59.828;30.328;2022-10-16T00:18:11;7.72;;;5.68;;
51272;SDS011;37345;59.828;30.328;2022-10-16T00:20:39;11.00;;;5.40;;
51272;SDS011;37345;59.828;30.328;2022-10-16T00:23:05;9.23;;;5.57;;
51272;SDS011;37345;59.828;30.328;2022-10-16T00:25:32;9.83;;;5.67;;
51272;SDS011;37345;59.828;30.328;2022-10-16T00:27:59;7.88;;;5.47;;
51272;SDS011;37345;59.828;30.328;2022-10-16T00:30:25;8.88;;;6.05;;
51272;SDS011;37345;59.828;30.328;2022-10-16T00:32:52;8.63;;;5.38;;
51272;SDS011;37345;59.828;30.328;2022-10-16T00:35:19;11.87;;;5.20;;
51272;SDS011;37345;59.828;30.328;2022-10-16T00:37:45;8.75;;;6.07;;
51272;SDS011;37345;59.828;30.328;2022-10-16T00:40:11;8.67;;;5.20;;
51272;SDS011;37345;59.828;30.328;2022-10-16T00:42:37;9.32;;;5.50;;
51272;SDS011;37345;59.828;30.328;2022-10-16T00:45:04;8.23;;;6.00;;
51272;SDS011;37345;59.828;30.328;2022-10-16T00:47:32;8.07;;;5.65;;
51272;SDS011;37345;59.828;30.328;2022-10-16T00:50:43;11.00;;;5.82;;
51272;SDS011;37345;59.828;30.328;2022-10-16T00:52:46;8.30;;;5.60;;
51272;SDS011;37345;59.828;30.328;2022-10-16T00:55:12;10.45;;;5.70;;
51272;SDS011;37345;59.828;30.328;2022-10-16T00:57:39;10.07;;;5.68;;
51272;SDS011;37345;59.828;30.328;2022-10-16T01:00:06;10.02;;;5.47;;
51272;SDS011;37345;59.828;30.328;2022-10-16T01:02:33;10.20;;;5.75;;
51272;SDS011;37345;59.828;30.328;2022-10-16T01:04:59;9.32;;;5.88;;
51272;SDS011;37345;59.828;30.328;2022-10-16T01:10:09;11.13;;;6.22;;
51272;SDS011;37345;59.828;30.328;2022-10-16T01:12:41;8.77;;;5.63;;
51272;SDS011;37345;59.828;30.328;2022-10-16T01:15:18;8.25;;;5.75;;
51272;SDS011;37345;59.828;30.328;2022-10-16T01:17:48;9.70;;;6.32;;
51272;SDS011;37345;59.828;30.328;2022-10-16T01:25:46;9.20;;;5.85;;
51272;SDS011;37345;59.828;30.328;2022-10-16T01:28:15;12.55;;;6.88;;
51272;SDS011;37345;59.828;30.328;2022-10-16T01:30:43;8.57;;;5.65;;
51272;SDS011;37345;59.828;30.328;2022-10-16T01:35:42;9.00;;;5.75;;
51272;SDS011;37345;59.828;30.328;2022-10-16T01:40:39;9.80;;;6.70;;
51272;SDS011;37345;59.828;30.328;2022-10-16T01:43:13;10.00;;;6.40;;
51272;SDS011;37345;59.828;30.328;2022-10-16T01:45:41;8.68;;;5.78;;
51272;SDS011;37345;59.828;30.328;2022-10-16T01:48:10;8.93;;;6.18;;
51272;SDS011;37345;59.828;30.328;2022-10-16T01:50:38;8.73;;;5.57;;
51272;SDS011;37345;59.828;30.328;2022-10-16T01:53:05;9.68;;;6.20;;
51272;SDS011;37345;59.828;30.328;2022-10-16T01:55:34;11.32;;;6.25;;
51272;SDS011;37345;59.828;30.328;2022-10-16T01:58:06;9.82;;;6.28;;
51272;SDS011;37345;59.828;30.328;2022-10-16T02:00:36;10.13;;;6.25;;
51272;SDS011;37345;59.828;30.328;2022-10-16T02:03:02;11.27;;;5.78;;
51272;SDS011;37345;59.828;30.328;2022-10-16T02:08:05;9.00;;;5.63;;
51272;SDS011;37345;59.828;30.328;2022-10-16T02:10:32;9.63;;;6.07;;
51272;SDS011;37345;59.828;30.328;2022-10-16T02:13:09;10.20;;;5.95;;
51272;SDS011;37345;59.828;30.328;2022-10-16T02:15:36;10.43;;;5.53;;
51272;SDS011;37345;59.828;30.328;2022-10-16T02:18:04;10.45;;;6.57;;
51272;SDS011;37345;59.828;30.328;2022-10-16T02:20:32;11.07;;;6.00;;
51272;SDS011;37345;59.828;30.328;2022-10-16T02:23:00;11.13;;;6.53;;
51272;SDS011;37345;59.828;30.328;2022-10-16T02:25:29;13.80;;;6.70;;
51272;SDS011;37345;59.828;30.328;2022-10-16T02:30:24;12.80;;;6.38;;
51272;SDS011;37345;59.828;30.328;2022-10-16T02:32:53;10.93;;;6.65;;
51272;SDS011;37345;59.828;30.328;2022-10-16T02:35:20;10.07;;;6.60;;
51272;SDS011;37345;59.828;30.328;2022-10-16T02:37:47;10.50;;;5.95;;
51272;SDS011;37345;59.828;30.328;2022-10-16T02:40:14;11.73;;;7.25;;
51272;SDS011;37345;59.828;30.328;2022-10-16T02:42:41;11.30;;;6.15;;
51272;SDS011;37345;59.828;30.328;2022-10-16T02:45:08;11.68;;;6.30;;
51272;SDS011;37345;59.828;30.328;2022-10-16T02:47:35;9.45;;;6.50;;
51272;SDS011;37345;59.828;30.328;2022-10-16T02:50:01;12.18;;;6.32;;
51272;SDS011;37345;59.828;30.328;2022-10-16T02:52:27;9.15;;;6.60;;
51272;SDS011;37345;59.828;30.328;2022-10-16T02:54:53;8.25;;;5.53;;
51272;SDS011;37345;59.828;30.328;2022-10-16T02:57:19;8.57;;;6.30;;
51272;SDS011;37345;59.828;30.328;2022-10-16T02:59:45;14.18;;;6.20;;
51272;SDS011;37345;59.828;30.328;2022-10-16T03:02:11;9.68;;;6.22;;
51272;SDS011;37345;59.828;30.328;2022-10-16T03:04:38;10.13;;;6.68;;
51272;SDS011;37345;59.828;30.328;2022-10-16T03:07:04;9.93;;;6.18;;
51272;SDS011;37345;59.828;30.328;2022-10-16T03:09:30;10.10;;;6.20;;
51272;SDS011;37345;59.828;30.328;2022-10-16T03:11:56;11.82;;;6.72;;
51272;SDS011;37345;59.828;30.328;2022-10-16T03:14:22;12.40;;;7.00;;
51272;SDS011;37345;59.828;30.328;2022-10-16T03:16:49;9.40;;;6.20;;
51272;SDS011;37345;59.828;30.328;2022-10-16T03:19:18;10.82;;;6.10;;
51272;SDS011;37345;59.828;30.328;2022-10-16T03:21:45;9.25;;;6.32;;
51272;SDS011;37345;59.828;30.328;2022-10-16T03:24:11;10.20;;;6.30;;
51272;SDS011;37345;59.828;30.328;2022-10-16T03:26:37;9.18;;;6.40;;
51272;SDS011;37345;59.828;30.328;2022-10-16T03:29:03;9.18;;;5.50;;
51272;SDS011;37345;59.828;30.328;2022-10-16T03:31:30;10.10;;;6.68;;
51272;SDS011;37345;59.828;30.328;2022-10-16T03:33:56;9.02;;;6.20;;
51272;SDS011;37345;59.828;30.328;2022-10-16T03:36:23;9.85;;;6.50;;
51272;SDS011;37345;59.828;30.328;2022-10-16T03:38:49;10.48;;;5.60;;
51272;SDS011;37345;59.828;30.328;2022-10-16T03:41:15;7.68;;;5.90;;
51272;SDS011;37345;59.828;30.328;2022-10-16T03:43:41;9.65;;;6.15;;
51272;SDS011;37345;59.828;30.328;2022-10-16T03:46:07;8.25;;;6.07;;
51272;SDS011;37345;59.828;30.328;2022-10-16T03:48:33;9.45;;;6.15;;
51272;SDS011;37345;59.828;30.328;2022-10-16T03:51:00;9.75;;;6.30;;
51272;SDS011;37345;59.828;30.328;2022-10-16T03:53:26;10.57;;;6.00;;
51272;SDS011;37345;59.828;30.328;2022-10-16T03:55:52;10.60;;;6.10;;
51272;SDS011;37345;59.828;30.328;2022-10-16T03:58:18;11.13;;;6.38;;
51272;SDS011;37345;59.828;30.328;2022-10-16T04:00:46;10.52;;;6.28;;
51272;SDS011;37345;59.828;30.328;2022-10-16T04:03:13;9.38;;;6.43;;
51272;SDS011;37345;59.828;30.328;2022-10-16T04:05:39;8.53;;;6.00;;
51272;SDS011;37345;59.828;30.328;2022-10-16T04:08:06;8.35;;;5.90;;
51272;SDS011;37345;59.828;30.328;2022-10-16T04:10:32;9.00;;;5.97;;
51272;SDS011;37345;59.828;30.328;2022-10-16T04:12:58;9.13;;;5.55;;
51272;SDS011;37345;59.828;30.328;2022-10-16T04:15:25;10.32;;;6.15;;
51272;SDS011;37345;59.828;30.328;2022-10-16T04:17:51;8.55;;;6.13;;
51272;SDS011;37345;59.828;30.328;2022-10-16T04:20:17;10.40;;;6.10;;
51272;SDS011;37345;59.828;30.328;2022-10-16T04:22:44;10.93;;;6.07;;
51272;SDS011;37345;59.828;30.328;2022-10-16T04:25:10;10.20;;;6.75;;
51272;SDS011;37345;59.828;30.328;2022-10-16T04:27:37;10.20;;;6.18;;
51272;SDS011;37345;59.828;30.328;2022-10-16T04:30:04;8.98;;;6.45;;
51272;SDS011;37345;59.828;30.328;2022-10-16T04:32:30;10.88;;;6.15;;
51272;SDS011;37345;59.828;30.328;2022-10-16T04:34:56;9.18;;;6.22;;
51272;SDS011;37345;59.828;30.328;2022-10-16T04:37:23;13.40;;;7.07;;
51272;SDS011;37345;59.828;30.328;2022-10-16T04:39:50;8.68;;;6.65;;
51272;SDS011;37345;59.828;30.328;2022-10-16T04:42:16;11.98;;;6.60;;
51272;SDS011;37345;59.828;30.328;2022-10-16T04:44:42;9.07;;;6.07;;
51272;SDS011;37345;59.828;30.328;2022-10-16T04:47:08;8.40;;;5.53;;
51272;SDS011;37345;59.828;30.328;2022-10-16T04:49:34;10.13;;;6.35;;
51272;SDS011;37345;59.828;30.328;2022-10-16T04:52:01;9.38;;;6.57;;
51272;SDS011;37345;59.828;30.328;2022-10-16T04:54:27;8.77;;;6.22;;
51272;SDS011;37345;59.828;30.328;2022-10-16T04:56:53;9.90;;;5.82;;
51272;SDS011;37345;59.828;30.328;2022-10-16T04:59:19;10.55;;;6.18;;
51272;SDS011;37345;59.828;30.328;2022-10-16T05:01:46;10.23;;;6.45;;
51272;SDS011;37345;59.828;30.328;2022-10-16T05:04:12;8.47;;;6.07;;
51272;SDS011;37345;59.828;30.328;2022-10-16T05:06:39;8.48;;;6.05;;
51272;SDS011;37345;59.828;30.328;2022-10-16T05:09:08;10.05;;;5.97;;
51272;SDS011;37345;59.828;30.328;2022-10-16T05:11:35;9.32;;;6.03;;
51272;SDS011;37345;59.828;30.328;2022-10-16T05:14:01;7.93;;;6.18;;
51272;SDS011;37345;59.828;30.328;2022-10-16T05:16:27;10.80;;;6.28;;
51272;SDS011;37345;59.828;30.328;2022-10-16T05:18:54;8.82;;;6.13;;
51272;SDS011;37345;59.828;30.328;2022-10-16T05:21:21;10.65;;;5.65;;
51272;SDS011;37345;59.828;30.328;2022-10-16T05:23:47;8.30;;;5.97;;
51272;SDS011;37345;59.828;30.328;2022-10-16T05:26:13;9.30;;;5.53;;
51272;SDS011;37345;59.828;30.328;2022-10-16T05:28:40;9.25;;;5.88;;
51272;SDS011;37345;59.828;30.328;2022-10-16T05:31:09;10.93;;;5.75;;
51272;SDS011;37345;59.828;30.328;2022-10-16T05:33:35;8.85;;;5.82;;
51272;SDS011;37345;59.828;30.328;2022-10-16T05:36:02;11.82;;;5.63;;
51272;SDS011;37345;59.828;30.328;2022-10-16T05:38:29;9.15;;;5.60;;
51272;SDS011;37345;59.828;30.328;2022-10-16T05:40:55;11.48;;;6.75;;
51272;SDS011;37345;59.828;30.328;2022-10-16T05:43:24;10.23;;;5.55;;
51272;SDS011;37345;59.828;30.328;2022-10-16T05:45:54;11.10;;;6.32;;
51272;SDS011;37345;59.828;30.328;2022-10-16T05:48:20;9.35;;;5.90;;
51272;SDS011;37345;59.828;30.328;2022-10-16T05:50:47;11.13;;;5.70;;
51272;SDS011;37345;59.828;30.328;2022-10-16T05:53:13;10.35;;;5.57;;
51272;SDS011;37345;59.828;30.328;2022-10-16T05:55:39;9.60;;;5.60;;
51272;SDS011;37345;59.828;30.328;2022-10-16T05:58:05;7.78;;;5.57;;
51272;SDS011;37345;59.828;30.328;2022-10-16T06:00:34;8.38;;;5.28;;
51272;SDS011;37345;59.828;30.328;2022-10-16T06:03:00;11.20;;;5.70;;
51272;SDS011;37345;59.828;30.328;2022-10-16T06:05:27;9.18;;;5.55;;
51272;SDS011;37345;59.828;30.328;2022-10-16T06:07:53;11.90;;;5.72;;
51272;SDS011;37345;59.828;30.328;2022-10-16T06:10:19;8.98;;;5.55;;
51272;SDS011;37345;59.828;30.328;2022-10-16T06:12:45;8.82;;;5.40;;
51272;SDS011;37345;59.828;30.328;2022-10-16T06:15:11;8.18;;;5.35;;
51272;SDS011;37345;59.828;30.328;2022-10-16T06:17:38;9.07;;;5.70;;
51272;SDS011;37345;59.828;30.328;2022-10-16T06:20:04;9.68;;;5.13;;
51272;SDS011;37345;59.828;30.328;2022-10-16T06:22:30;13.38;;;5.72;;
51272;SDS011;37345;59.828;30.328;2022-10-16T06:24:56;8.82;;;5.50;;
51272;SDS011;37345;59.828;30.328;2022-10-16T06:27:22;11.88;;;5.97;;
51272;SDS011;37345;59.828;30.328;2022-10-16T06:29:48;7.03;;;5.40;;
51272;SDS011;37345;59.828;30.328;2022-10-16T06:32:14;9.57;;;5.30;;
51272;SDS011;37345;59.828;30.328;2022-10-16T06:34:40;8.85;;;5.15;;
51272;SDS011;37345;59.828;30.328;2022-10-16T06:37:07;8.70;;;5.23;;
51272;SDS011;37345;59.828;30.328;2022-10-16T06:39:33;7.25;;;4.93;;
51272;SDS011;37345;59.828;30.328;2022-10-16T06:41:59;8.38;;;5.32;;
51272;SDS011;37345;59.828;30.328;2022-10-16T06:44:25;9.07;;;5.47;;
51272;SDS011;37345;59.828;30.328;2022-10-16T06:46:51;9.50;;;5.43;;
51272;SDS011;37345;59.828;30.328;2022-10-16T06:49:17;9.73;;;5.43;;
51272;SDS011;37345;59.828;30.328;2022-10-16T06:51:47;6.90;;;4.82;;
51272;SDS011;37345;59.828;30.328;2022-10-16T06:54:14;8.88;;;5.07;;
51272;SDS011;37345;59.828;30.328;2022-10-16T06:56:40;8.25;;;5.03;;
51272;SDS011;37345;59.828;30.328;2022-10-16T06:59:06;7.93;;;4.65;;
51272;SDS011;37345;59.828;30.328;2022-10-16T07:01:32;8.65;;;4.97;;
51272;SDS011;37345;59.828;30.328;2022-10-16T07:04:02;8.37;;;5.20;;
51272;SDS011;37345;59.828;30.328;2022-10-16T07:06:30;8.82;;;5.30;;
51272;SDS011;37345;59.828;30.328;2022-10-16T07:08:56;7.13;;;4.90;;
51272;SDS011;37345;59.828;30.328;2022-10-16T07:11:23;7.72;;;4.70;;
51272;SDS011;37345;59.828;30.328;2022-10-16T07:13:50;10.25;;;5.13;;
51272;SDS011;37345;59.828;30.328;2022-10-16T07:16:19;8.75;;;5.00;;
51272;SDS011;37345;59.828;30.328;2022-10-16T07:18:46;6.93;;;4.85;;
51272;SDS011;37345;59.828;30.328;2022-10-16T07:21:20;7.93;;;4.72;;
51272;SDS011;37345;59.828;30.328;2022-10-16T07:23:59;9.18;;;5.25;;
51272;SDS011;37345;59.828;30.328;2022-10-16T07:26:26;9.40;;;5.03;;
51272;SDS011;37345;59.828;30.328;2022-10-16T07:28:52;9.85;;;5.15;;
51272;SDS011;37345;59.828;30.328;2022-10-16T07:31:19;7.82;;;5.30;;
51272;SDS011;37345;59.828;30.328;2022-10-16T07:33:45;10.00;;;5.22;;
51272;SDS011;37345;59.828;30.328;2022-10-16T07:36:13;7.22;;;4.80;;
51272;SDS011;37345;59.828;30.328;2022-10-16T07:38:40;7.97;;;5.60;;
51272;SDS011;37345;59.828;30.328;2022-10-16T07:41:08;8.07;;;4.82;;
51272;SDS011;37345;59.828;30.328;2022-10-16T07:43:35;8.73;;;4.82;;
51272;SDS011;37345;59.828;30.328;2022-10-16T07:46:01;9.63;;;5.47;;
51272;SDS011;37345;59.828;30.328;2022-10-16T07:48:28;9.95;;;5.05;;
51272;SDS011;37345;59.828;30.328;2022-10-16T07:51:01;9.18;;;4.88;;
51272;SDS011;37345;59.828;30.328;2022-10-16T07:53:27;10.23;;;5.28;;
51272;SDS011;37345;59.828;30.328;2022-10-16T07:56:00;11.20;;;5.00;;
51272;SDS011;37345;59.828;30.328;2022-10-16T07:58:27;9.38;;;4.90;;
51272;SDS011;37345;59.828;30.328;2022-10-16T08:00:55;6.88;;;5.00;;
51272;SDS011;37345;59.828;30.328;2022-10-16T08:03:22;11.07;;;5.28;;
51272;SDS011;37345;59.828;30.328;2022-10-16T08:05:48;8.15;;;4.90;;
51272;SDS011;37345;59.828;30.328;2022-10-16T08:08:15;6.25;;;4.40;;
51272;SDS011;37345;59.828;30.328;2022-10-16T08:10:41;9.23;;;4.53;;
51272;SDS011;37345;59.828;30.328;2022-10-16T08:13:08;7.37;;;4.70;;
51272;SDS011;37345;59.828;30.328;2022-10-16T08:15:34;10.05;;;4.85;;
51272;SDS011;37345;59.828;30.328;2022-10-16T08:18:01;11.70;;;4.82;;
51272;SDS011;37345;59.828;30.328;2022-10-16T08:20:28;9.43;;;4.80;;
51272;SDS011;37345;59.828;30.328;2022-10-16T08:22:54;7.63;;;4.18;;
51272;SDS011;37345;59.828;30.328;2022-10-16T08:25:21;9.70;;;4.53;;
51272;SDS011;37345;59.828;30.328;2022-10-16T08:27:48;8.20;;;5.00;;
51272;SDS011;37345;59.828;30.328;2022-10-16T08:30:14;9.00;;;5.03;;
51272;SDS011;37345;59.828;30.328;2022-10-16T08:32:41;9.00;;;4.63;;
51272;SDS011;37345;59.828;30.328;2022-10-16T08:35:08;6.72;;;4.47;;
51272;SDS011;37345;59.828;30.328;2022-10-16T08:37:34;6.95;;;4.68;;
51272;SDS011;37345;59.828;30.328;2022-10-16T08:40:00;6.82;;;4.55;;
51272;SDS011;37345;59.828;30.328;2022-10-16T08:47:54;8.98;;;5.00;;
51272;SDS011;37345;59.828;30.328;2022-10-16T08:50:25;9.40;;;4.60;;
51272;SDS011;37345;59.828;30.328;2022-10-16T08:52:53;7.88;;;4.78;;
51272;SDS011;37345;59.828;30.328;2022-10-16T08:57:55;7.63;;;4.73;;
51272;SDS011;37345;59.828;30.328;2022-10-16T09:00:21;10.30;;;4.85;;
51272;SDS011;37345;59.828;30.328;2022-10-16T09:02:59;8.98;;;4.85;;
51272;SDS011;37345;59.828;30.328;2022-10-16T09:13:09;9.60;;;4.50;;
51272;SDS011;37345;59.828;30.328;2022-10-16T09:15:39;7.03;;;4.65;;
51272;SDS011;37345;59.828;30.328;2022-10-16T09:20:49;8.50;;;4.82;;
51272;SDS011;37345;59.828;30.328;2022-10-16T09:23:17;8.63;;;4.47;;
51272;SDS011;37345;59.828;30.328;2022-10-16T09:25:48;7.65;;;4.53;;
51272;SDS011;37345;59.828;30.328;2022-10-16T09:28:15;6.55;;;4.55;;
51272;SDS011;37345;59.828;30.328;2022-10-16T09:30:41;8.35;;;4.47;;
51272;SDS011;37345;59.828;30.328;2022-10-16T09:33:09;6.70;;;4.65;;
51272;SDS011;37345;59.828;30.328;2022-10-16T09:38:05;9.63;;;4.75;;
51272;SDS011;37345;59.828;30.328;2022-10-16T09:40:34;7.57;;;4.82;;
51272;SDS011;37345;59.828;30.328;2022-10-16T09:43:02;7.78;;;4.75;;
51272;SDS011;37345;59.828;30.328;2022-10-16T09:45:29;10.63;;;4.97;;
51272;SDS011;37345;59.828;30.328;2022-10-16T09:47:55;14.20;;;5.78;;
51272;SDS011;37345;59.828;30.328;2022-10-16T09:50:23;8.07;;;4.80;;
51272;SDS011;37345;59.828;30.328;2022-10-16T09:52:50;9.43;;;4.90;;
51272;SDS011;37345;59.828;30.328;2022-10-16T09:55:17;10.43;;;5.30;;
51272;SDS011;37345;59.828;30.328;2022-10-16T09:57:50;9.07;;;4.55;;
51272;SDS011;37345;59.828;30.328;2022-10-16T10:00:16;10.95;;;4.57;;
51272;SDS011;37345;59.828;30.328;2022-10-16T10:02:45;7.40;;;4.43;;
51272;SDS011;37345;59.828;30.328;2022-10-16T10:05:19;10.93;;;4.60;;
51272;SDS011;37345;59.828;30.328;2022-10-16T10:07:53;6.77;;;4.30;;
51272;SDS011;37345;59.828;30.328;2022-10-16T10:10:24;10.27;;;5.00;;
51272;SDS011;37345;59.828;30.328;2022-10-16T10:12:51;7.90;;;4.15;;
51272;SDS011;37345;59.828;30.328;2022-10-16T10:15:17;7.53;;;5.10;;
51272;SDS011;37345;59.828;30.328;2022-10-16T10:17:56;7.72;;;4.43;;
51272;SDS011;37345;59.828;30.328;2022-10-16T10:20:30;7.70;;;4.45;;
51272;SDS011;37345;59.828;30.328;2022-10-16T10:22:59;8.80;;;4.40;;
51272;SDS011;37345;59.828;30.328;2022-10-16T10:30:25;7.03;;;4.60;;
51272;SDS011;37345;59.828;30.328;2022-10-16T10:33:00;6.43;;;4.10;;
51272;SDS011;37345;59.828;30.328;2022-10-16T10:43:28;8.90;;;4.30;;
51272;SDS011;37345;59.828;30.328;2022-10-16T10:46:00;6.20;;;4.07;;
51272;SDS011;37345;59.828;30.328;2022-10-16T10:51:19;5.78;;;3.90;;
51272;SDS011;37345;59.828;30.328;2022-10-16T10:53:50;8.10;;;4.30;;
51272;SDS011;37345;59.828;30.328;2022-10-16T10:56:41;8.80;;;4.50;;
51272;SDS011;37345;59.828;30.328;2022-10-16T11:01:54;8.93;;;4.53;;
51272;SDS011;37345;59.828;30.328;2022-10-16T11:06:58;8.02;;;4.80;;
51272;SDS011;37345;59.828;30.328;2022-10-16T11:09:28;7.78;;;4.43;;
51272;SDS011;37345;59.828;30.328;2022-10-16T11:11:58;6.65;;;4.30;;
51272;SDS011;37345;59.828;30.328;2022-10-16T11:15:07;7.22;;;4.43;;
51272;SDS011;37345;59.828;30.328;2022-10-16T11:17:38;7.60;;;4.47;;
51272;SDS011;37345;59.828;30.328;2022-10-16T11:23:00;10.38;;;4.90;;
51272;SDS011;37345;59.828;30.328;2022-10-16T11:25:25;7.68;;;4.43;;
51272;SDS011;37345;59.828;30.328;2022-10-16T11:30:28;8.10;;;4.60;;
51272;SDS011;37345;59.828;30.328;2022-10-16T11:38:12;7.07;;;4.57;;
51272;SDS011;37345;59.828;30.328;2022-10-16T11:41:21;8.60;;;4.78;;
51272;SDS011;37345;59.828;30.328;2022-10-16T11:46:35;7.35;;;4.88;;
51272;SDS011;37345;59.828;30.328;2022-10-16T11:49:03;6.78;;;4.32;;
51272;SDS011;37345;59.828;30.328;2022-10-16T11:51:37;7.53;;;4.32;;
51272;SDS011;37345;59.828;30.328;2022-10-16T11:54:08;6.40;;;4.47;;
51272;SDS011;37345;59.828;30.328;2022-10-16T11:56:37;6.55;;;4.45;;
51272;SDS011;37345;59.828;30.328;2022-10-16T11:59:10;7.65;;;4.70;;
51272;SDS011;37345;59.828;30.328;2022-10-16T12:01:43;7.78;;;5.07;;
51272;SDS011;37345;59.828;30.328;2022-10-16T12:04:19;9.38;;;4.82;;
51272;SDS011;37345;59.828;30.328;2022-10-16T12:06:48;8.57;;;5.22;;
51272;SDS011;37345;59.828;30.328;2022-10-16T12:09:24;8.88;;;5.15;;
51272;SDS011;37345;59.828;30.328;2022-10-16T12:11:51;8.20;;;5.20;;
51272;SDS011;37345;59.828;30.328;2022-10-16T12:14:19;7.13;;;5.10;;
51272;SDS011;37345;59.828;30.328;2022-10-16T12:19:21;7.57;;;5.27;;
51272;SDS011;37345;59.828;30.328;2022-10-16T12:21:48;9.00;;;5.28;;
51272;SDS011;37345;59.828;30.328;2022-10-16T12:24:50;9.70;;;5.27;;
51272;SDS011;37345;59.828;30.328;2022-10-16T12:27:20;8.38;;;5.30;;
51272;SDS011;37345;59.828;30.328;2022-10-16T12:29:48;9.32;;;5.75;;
51272;SDS011;37345;59.828;30.328;2022-10-16T12:32:28;8.20;;;4.78;;
51272;SDS011;37345;59.828;30.328;2022-10-16T12:34:55;9.80;;;4.97;;
51272;SDS011;37345;59.828;30.328;2022-10-16T12:37:26;8.05;;;5.07;;
51272;SDS011;37345;59.828;30.328;2022-10-16T12:39:53;12.00;;;5.30;;
51272;SDS011;37345;59.828;30.328;2022-10-16T12:44:52;6.97;;;5.05;;
51272;SDS011;37345;59.828;30.328;2022-10-16T12:47:23;8.30;;;4.97;;
51272;SDS011;37345;59.828;30.328;2022-10-16T12:52:35;10.38;;;5.43;;
51272;SDS011;37345;59.828;30.328;2022-10-16T12:55:03;6.03;;;4.37;;
51272;SDS011;37345;59.828;30.328;2022-10-16T13:00:28;8.63;;;5.47;;
51272;SDS011;37345;59.828;30.328;2022-10-16T13:08:44;11.68;;;6.65;;
51272;SDS011;37345;59.828;30.328;2022-10-16T13:11:29;9.32;;;6.60;;
51272;SDS011;37345;59.828;30.328;2022-10-16T13:18:57;11.52;;;6.80;;
51272;SDS011;37345;59.828;30.328;2022-10-16T13:26:31;11.88;;;7.50;;
51272;SDS011;37345;59.828;30.328;2022-10-16T13:29:00;12.93;;;7.57;;
51272;SDS011;37345;59.828;30.328;2022-10-16T13:31:27;13.77;;;8.00;;
51272;SDS011;37345;59.828;30.328;2022-10-16T13:33:55;11.93;;;6.95;;
51272;SDS011;37345;59.828;30.328;2022-10-16T13:36:26;14.20;;;8.10;;
51272;SDS011;37345;59.828;30.328;2022-10-16T13:41:37;13.40;;;7.63;;
51272;SDS011;37345;59.828;30.328;2022-10-16T13:44:03;12.07;;;7.43;;
51272;SDS011;37345;59.828;30.328;2022-10-16T13:46:29;13.38;;;8.07;;
51272;SDS011;37345;59.828;30.328;2022-10-16T13:49:04;12.38;;;7.35;;
51272;SDS011;37345;59.828;30.328;2022-10-16T13:51:30;14.88;;;8.82;;
51272;SDS011;37345;59.828;30.328;2022-10-16T13:53:57;15.48;;;8.70;;
51272;SDS011;37345;59.828;30.328;2022-10-16T13:56:28;11.00;;;7.47;;
51272;SDS011;37345;59.828;30.328;2022-10-16T13:58:58;12.88;;;8.10;;
51272;SDS011;37345;59.828;30.328;2022-10-16T14:01:41;15.35;;;8.57;;
51272;SDS011;37345;59.828;30.328;2022-10-16T14:04:11;15.73;;;9.18;;
51272;SDS011;37345;59.828;30.328;2022-10-16T14:06:40;14.13;;;8.38;;
51272;SDS011;37345;59.828;30.328;2022-10-16T14:11:37;15.57;;;8.73;;
51272;SDS011;37345;59.828;30.328;2022-10-16T14:14:13;16.20;;;8.57;;
51272;SDS011;37345;59.828;30.328;2022-10-16T14:16:40;15.02;;;9.48;;
51272;SDS011;37345;59.828;30.328;2022-10-16T14:19:13;18.17;;;9.80;;
51272;SDS011;37345;59.828;30.328;2022-10-16T14:21:41;15.25;;;8.68;;
51272;SDS011;37345;59.828;30.328;2022-10-16T14:27:28;12.57;;;8.53;;
51272;SDS011;37345;59.828;30.328;2022-10-16T14:30:16;21.17;;;10.32;;
51272;SDS011;37345;59.828;30.328;2022-10-16T14:32:41;15.13;;;8.93;;
51272;SDS011;37345;59.828;30.328;2022-10-16T14:37:55;21.20;;;10.27;;
51272;SDS011;37345;59.828;30.328;2022-10-16T14:40:23;17.27;;;9.45;;
51272;SDS011;37345;59.828;30.328;2022-10-16T14:42:50;16.25;;;9.40;;
51272;SDS011;37345;59.828;30.328;2022-10-16T14:45:20;19.63;;;9.90;;
51272;SDS011;37345;59.828;30.328;2022-10-16T14:47:51;22.05;;;10.00;;
51272;SDS011;37345;59.828;30.328;2022-10-16T14:50:19;17.60;;;9.73;;
51272;SDS011;37345;59.828;30.328;2022-10-16T14:52:45;18.63;;;9.75;;
51272;SDS011;37345;59.828;30.328;2022-10-16T14:55:11;18.83;;;9.73;;
51272;SDS011;37345;59.828;30.328;2022-10-16T14:57:37;17.97;;;9.70;;
51272;SDS011;37345;59.828;30.328;2022-10-16T15:00:13;19.23;;;10.07;;
51272;SDS011;37345;59.828;30.328;2022-10-16T15:02:40;18.27;;;9.63;;
51272;SDS011;37345;59.828;30.328;2022-10-16T15:05:26;16.35;;;8.82;;
51272;SDS011;37345;59.828;30.328;2022-10-16T15:07:53;18.20;;;10.10;;
51272;SDS011;37345;59.828;30.328;2022-10-16T15:10:20;18.33;;;9.57;;
51272;SDS011;37345;59.828;30.328;2022-10-16T15:12:46;16.90;;;9.98;;
51272;SDS011;37345;59.828;30.328;2022-10-16T15:17:45;19.48;;;11.38;;
51272;SDS011;37345;59.828;30.328;2022-10-16T15:20:11;20.17;;;9.75;;
51272;SDS011;37345;59.828;30.328;2022-10-16T15:22:37;17.73;;;10.13;;
51272;SDS011;37345;59.828;30.328;2022-10-16T15:25:09;20.95;;;11.90;;
51272;SDS011;37345;59.828;30.328;2022-10-16T15:27:39;22.73;;;10.98;;
51272;SDS011;37345;59.828;30.328;2022-10-16T15:30:05;18.92;;;10.82;;
51272;SDS011;37345;59.828;30.328;2022-10-16T15:32:32;18.58;;;11.25;;
51272;SDS011;37345;59.828;30.328;2022-10-16T15:35:00;22.85;;;11.20;;
51272;SDS011;37345;59.828;30.328;2022-10-16T15:37:26;21.42;;;10.98;;
51272;SDS011;37345;59.828;30.328;2022-10-16T15:39:52;24.70;;;11.43;;
51272;SDS011;37345;59.828;30.328;2022-10-16T15:42:18;24.23;;;11.68;;
51272;SDS011;37345;59.828;30.328;2022-10-16T15:44:44;17.25;;;10.52;;
51272;SDS011;37345;59.828;30.328;2022-10-16T15:47:11;20.52;;;11.43;;
51272;SDS011;37345;59.828;30.328;2022-10-16T15:49:37;21.52;;;11.32;;
51272;SDS011;37345;59.828;30.328;2022-10-16T15:52:04;25.60;;;13.93;;
51272;SDS011;37345;59.828;30.328;2022-10-16T15:54:30;26.67;;;12.75;;
51272;SDS011;37345;59.828;30.328;2022-10-16T15:56:56;21.40;;;11.90;;
51272;SDS011;37345;59.828;30.328;2022-10-16T15:59:23;32.30;;;16.48;;
51272;SDS011;37345;59.828;30.328;2022-10-16T16:01:49;24.33;;;12.60;;
51272;SDS011;37345;59.828;30.328;2022-10-16T16:04:15;20.60;;;10.95;;
51272;SDS011;37345;59.828;30.328;2022-10-16T16:06:41;22.27;;;11.27;;
51272;SDS011;37345;59.828;30.328;2022-10-16T16:09:11;24.70;;;13.53;;
51272;SDS011;37345;59.828;30.328;2022-10-16T16:11:38;25.13;;;12.30;;
51272;SDS011;37345;59.828;30.328;2022-10-16T16:14:12;23.23;;;10.27;;
51272;SDS011;37345;59.828;30.328;2022-10-16T16:16:38;27.45;;;13.10;;
51272;SDS011;37345;59.828;30.328;2022-10-16T16:19:05;25.63;;;13.88;;
51272;SDS011;37345;59.828;30.328;2022-10-16T16:21:32;30.90;;;13.20;;
51272;SDS011;37345;59.828;30.328;2022-10-16T16:23:59;25.27;;;10.98;;
51272;SDS011;37345;59.828;30.328;2022-10-16T16:26:28;29.05;;;14.07;;
51272;SDS011;37345;59.828;30.328;2022-10-16T16:29:00;34.60;;;14.70;;